sensor_id;sensor_type;location;lat;lon;timestamp;temperature;humidity
13561;DHT22;6852;51.686;5.314;2023-02-01T00:02:13;5.70;99.90
13561;DHT22;6852;51.686;5.314;2023-02-01T00:04:40;5.60;99.90
13561;DHT22;6852;51.686;5.314;2023-02-01T00:07:07;5.60;99.90
13561;DHT22;6852;51.686;5.314;2023-02-01T00:09:34;5.60;99.90
13561;DHT22;6852;51.686;5.314;2023-02-01T00:12:01;5.60;99.90
13561;DHT22;6852;51.686;5.314;2023-02-01T00:14:29;5.70;99.90
13561;DHT22;6852;51.686;5.314;2023-02-01T00:16:56;5.60;99.90
13561;DHT22;6852;51.686;5.314;2023-02-01T00:19:23;5.60;99.90
13561;DHT22;6852;51.686;5.314;2023-02-01T00:21:49;5.60;99.90
13561;DHT22;6852;51.686;5.314;2023-02-01T00:24:16;5.70;99.90
13561;DHT22;6852;51.686;5.314;2023-02-01T00:26:44;5.80;99.90
13561;DHT22;6852;51.686;5.314;2023-02-01T00:29:14;5.70;99.90
13561;DHT22;6852;51.686;5.314;2023-02-01T00:31:41;5.80;99.90
13561;DHT22;6852;51.686;5.314;2023-02-01T00:34:12;5.80;99.90
13561;DHT22;6852;51.686;5.314;2023-02-01T00:36:41;5.70;99.90
13561;DHT22;6852;51.686;5.314;2023-02-01T00:39:09;5.80;99.90
13561;DHT22;6852;51.686;5.314;2023-02-01T00:41:36;5.80;99.90
13561;DHT22;6852;51.686;5.314;2023-02-01T00:44:03;5.80;99.90
13561;DHT22;6852;51.686;5.314;2023-02-01T00:46:30;5.80;99.90
13561;DHT22;6852;51.686;5.314;2023-02-01T00:48:57;5.70;99.90
13561;DHT22;6852;51.686;5.314;2023-02-01T00:51:26;5.80;99.90
13561;DHT22;6852;51.686;5.314;2023-02-01T00:53:54;5.80;99.90
13561;DHT22;6852;51.686;5.314;2023-02-01T00:56:21;5.70;99.90
13561;DHT22;6852;51.686;5.314;2023-02-01T00:58:48;5.70;99.90
13561;DHT22;6852;51.686;5.314;2023-02-01T01:01:23;5.80;99.90
13561;DHT22;6852;51.686;5.314;2023-02-01T01:03:52;5.60;99.90
13561;DHT22;6852;51.686;5.314;2023-02-01T01:06:28;5.70;99.90
13561;DHT22;6852;51.686;5.314;2023-02-01T01:08:57;5.70;99.90
13561;DHT22;6852;51.686;5.314;2023-02-01T01:11:27;5.70;99.90
13561;DHT22;6852;51.686;5.314;2023-02-01T01:13:55;5.70;99.90
13561;DHT22;6852;51.686;5.314;2023-02-01T01:16:24;5.60;99.90
13561;DHT22;6852;51.686;5.314;2023-02-01T01:18:52;5.60;99.90
13561;DHT22;6852;51.686;5.314;2023-02-01T01:21:19;5.60;99.90
13561;DHT22;6852;51.686;5.314;2023-02-01T01:23:47;5.60;99.90
13561;DHT22;6852;51.686;5.314;2023-02-01T01:26:16;5.60;99.90
13561;DHT22;6852;51.686;5.314;2023-02-01T01:28:44;5.60;99.90
13561;DHT22;6852;51.686;5.314;2023-02-01T01:31:12;5.70;99.90
13561;DHT22;6852;51.686;5.314;2023-02-01T01:33:39;5.60;99.90
13561;DHT22;6852;51.686;5.314;2023-02-01T01:36:07;5.60;99.90
13561;DHT22;6852;51.686;5.314;2023-02-01T01:38:38;5.70;99.90
13561;DHT22;6852;51.686;5.314;2023-02-01T01:41:06;5.60;99.90
13561;DHT22;6852;51.686;5.314;2023-02-01T01:43:56;5.50;99.90
13561;DHT22;6852;51.686;5.314;2023-02-01T01:46:32;5.60;99.90
13561;DHT22;6852;51.686;5.314;2023-02-01T01:49:16;5.50;99.90
13561;DHT22;6852;51.686;5.314;2023-02-01T01:51:49;5.50;99.90
13561;DHT22;6852;51.686;5.314;2023-02-01T01:54:21;5.60;99.90
13561;DHT22;6852;51.686;5.314;2023-02-01T01:56:55;5.60;99.90
13561;DHT22;6852;51.686;5.314;2023-02-01T01:59:24;5.50;99.90
13561;DHT22;6852;51.686;5.314;2023-02-01T02:01:51;5.40;99.90
13561;DHT22;6852;51.686;5.314;2023-02-01T02:04:19;5.40;99.90
13561;DHT22;6852;51.686;5.314;2023-02-01T02:06:50;5.40;99.90
13561;DHT22;6852;51.686;5.314;2023-02-01T02:09:18;5.30;99.90
13561;DHT22;6852;51.686;5.314;2023-02-01T02:11:45;5.40;99.90
13561;DHT22;6852;51.686;5.314;2023-02-01T02:14:14;5.40;99.90
13561;DHT22;6852;51.686;5.314;2023-02-01T02:22:11;5.50;99.90
13561;DHT22;6852;51.686;5.314;2023-02-01T02:25:19;5.50;99.90
13561;DHT22;6852;51.686;5.314;2023-02-01T02:28:05;5.50;99.90
13561;DHT22;6852;51.686;5.314;2023-02-01T02:30:49;5.50;99.90
13561;DHT22;6852;51.686;5.314;2023-02-01T02:33:47;5.50;99.90
13561;DHT22;6852;51.686;5.314;2023-02-01T02:39:36;5.50;99.90
13561;DHT22;6852;51.686;5.314;2023-02-01T02:45:09;5.60;99.90
13561;DHT22;6852;51.686;5.314;2023-02-01T02:48:09;5.70;99.90
13561;DHT22;6852;51.686;5.314;2023-02-01T02:50:45;5.80;99.90
13561;DHT22;6852;51.686;5.314;2023-02-01T02:53:41;5.80;99.90
13561;DHT22;6852;51.686;5.314;2023-02-01T02:56:31;5.90;99.90
13561;DHT22;6852;51.686;5.314;2023-02-01T02:59:20;6.00;99.90
13561;DHT22;6852;51.686;5.314;2023-02-01T03:02:07;6.00;99.90
13561;DHT22;6852;51.686;5.314;2023-02-01T03:04:54;5.90;99.90
13561;DHT22;6852;51.686;5.314;2023-02-01T03:10:48;6.10;99.90
13561;DHT22;6852;51.686;5.314;2023-02-01T03:16:22;6.10;99.90
13561;DHT22;6852;51.686;5.314;2023-02-01T03:22:05;6.10;99.90
13561;DHT22;6852;51.686;5.314;2023-02-01T03:24:34;6.10;99.90
13561;DHT22;6852;51.686;5.314;2023-02-01T03:27:21;6.20;99.90
13561;DHT22;6852;51.686;5.314;2023-02-01T03:32:25;6.10;99.90
13561;DHT22;6852;51.686;5.314;2023-02-01T03:34:52;6.10;99.90
13561;DHT22;6852;51.686;5.314;2023-02-01T03:37:26;6.00;99.90
13561;DHT22;6852;51.686;5.314;2023-02-01T03:40:06;6.00;99.90
13561;DHT22;6852;51.686;5.314;2023-02-01T03:42:38;6.00;99.90
13561;DHT22;6852;51.686;5.314;2023-02-01T03:47:42;5.90;99.90
13561;DHT22;6852;51.686;5.314;2023-02-01T03:50:12;5.90;99.90
13561;DHT22;6852;51.686;5.314;2023-02-01T03:52:43;5.90;99.90
13561;DHT22;6852;51.686;5.314;2023-02-01T03:55:12;5.90;99.90
13561;DHT22;6852;51.686;5.314;2023-02-01T03:57:44;5.90;99.90
13561;DHT22;6852;51.686;5.314;2023-02-01T04:00:19;5.90;99.90
13561;DHT22;6852;51.686;5.314;2023-02-01T04:02:46;6.00;99.90
13561;DHT22;6852;51.686;5.314;2023-02-01T04:05:13;5.90;99.90
13561;DHT22;6852;51.686;5.314;2023-02-01T04:07:40;5.90;99.90
13561;DHT22;6852;51.686;5.314;2023-02-01T04:10:08;5.90;99.90
13561;DHT22;6852;51.686;5.314;2023-02-01T04:12:36;5.80;99.90
13561;DHT22;6852;51.686;5.314;2023-02-01T04:15:03;5.80;99.90
13561;DHT22;6852;51.686;5.314;2023-02-01T04:17:30;5.80;99.90
13561;DHT22;6852;51.686;5.314;2023-02-01T04:19:57;5.80;99.90
13561;DHT22;6852;51.686;5.314;2023-02-01T04:22:24;5.80;99.90
13561;DHT22;6852;51.686;5.314;2023-02-01T04:24:50;5.80;99.90
13561;DHT22;6852;51.686;5.314;2023-02-01T04:27:17;5.80;99.90
13561;DHT22;6852;51.686;5.314;2023-02-01T04:29:44;5.90;99.90
13561;DHT22;6852;51.686;5.314;2023-02-01T04:32:11;5.90;99.90
13561;DHT22;6852;51.686;5.314;2023-02-01T04:34:38;6.00;99.90
13561;DHT22;6852;51.686;5.314;2023-02-01T04:37:05;6.00;99.90
13561;DHT22;6852;51.686;5.314;2023-02-01T04:39:32;6.00;99.90
13561;DHT22;6852;51.686;5.314;2023-02-01T04:41:59;6.00;99.90
13561;DHT22;6852;51.686;5.314;2023-02-01T04:44:26;6.10;99.90
13561;DHT22;6852;51.686;5.314;2023-02-01T04:46:52;6.10;99.90
13561;DHT22;6852;51.686;5.314;2023-02-01T04:49:19;6.10;99.90
13561;DHT22;6852;51.686;5.314;2023-02-01T04:51:48;6.10;99.90
13561;DHT22;6852;51.686;5.314;2023-02-01T04:54:14;6.10;99.90
13561;DHT22;6852;51.686;5.314;2023-02-01T04:56:41;6.20;99.90
13561;DHT22;6852;51.686;5.314;2023-02-01T04:59:11;6.20;99.90
13561;DHT22;6852;51.686;5.314;2023-02-01T05:01:38;6.20;99.90
13561;DHT22;6852;51.686;5.314;2023-02-01T05:04:05;6.10;99.90
13561;DHT22;6852;51.686;5.314;2023-02-01T05:06:31;6.10;99.90
13561;DHT22;6852;51.686;5.314;2023-02-01T05:08:58;6.10;99.90
13561;DHT22;6852;51.686;5.314;2023-02-01T05:11:25;6.20;99.90
13561;DHT22;6852;51.686;5.314;2023-02-01T05:14:10;6.20;99.90
13561;DHT22;6852;51.686;5.314;2023-02-01T05:16:37;6.20;99.90
13561;DHT22;6852;51.686;5.314;2023-02-01T05:19:04;6.30;99.90
13561;DHT22;6852;51.686;5.314;2023-02-01T05:21:31;6.20;99.90
13561;DHT22;6852;51.686;5.314;2023-02-01T05:23:57;6.30;99.90
13561;DHT22;6852;51.686;5.314;2023-02-01T05:26:37;6.30;99.90
13561;DHT22;6852;51.686;5.314;2023-02-01T05:29:05;6.30;99.90
13561;DHT22;6852;51.686;5.314;2023-02-01T05:31:32;6.30;99.90
13561;DHT22;6852;51.686;5.314;2023-02-01T05:33:59;6.30;99.90
13561;DHT22;6852;51.686;5.314;2023-02-01T05:36:26;6.40;99.90
13561;DHT22;6852;51.686;5.314;2023-02-01T05:38:53;6.30;99.90
13561;DHT22;6852;51.686;5.314;2023-02-01T05:41:20;6.40;99.90
13561;DHT22;6852;51.686;5.314;2023-02-01T05:43:47;6.40;99.90
13561;DHT22;6852;51.686;5.314;2023-02-01T05:46:14;6.40;99.90
13561;DHT22;6852;51.686;5.314;2023-02-01T05:48:41;6.40;99.90
13561;DHT22;6852;51.686;5.314;2023-02-01T05:51:09;6.40;99.90
13561;DHT22;6852;51.686;5.314;2023-02-01T05:53:36;6.50;99.90
13561;DHT22;6852;51.686;5.314;2023-02-01T05:56:03;6.50;99.90
13561;DHT22;6852;51.686;5.314;2023-02-01T05:58:30;6.50;99.90
13561;DHT22;6852;51.686;5.314;2023-02-01T06:01:01;6.50;99.90
13561;DHT22;6852;51.686;5.314;2023-02-01T06:03:28;6.50;99.90
13561;DHT22;6852;51.686;5.314;2023-02-01T06:05:55;6.60;99.90
13561;DHT22;6852;51.686;5.314;2023-02-01T06:08:22;6.60;99.90
13561;DHT22;6852;51.686;5.314;2023-02-01T06:10:58;6.60;99.90
13561;DHT22;6852;51.686;5.314;2023-02-01T06:13:25;6.60;99.90
13561;DHT22;6852;51.686;5.314;2023-02-01T06:15:52;6.70;99.90
13561;DHT22;6852;51.686;5.314;2023-02-01T06:18:19;6.70;99.90
13561;DHT22;6852;51.686;5.314;2023-02-01T06:20:55;6.70;99.90
13561;DHT22;6852;51.686;5.314;2023-02-01T06:23:22;6.70;99.90
13561;DHT22;6852;51.686;5.314;2023-02-01T06:25:51;6.70;99.90
13561;DHT22;6852;51.686;5.314;2023-02-01T06:28:18;6.70;99.90
13561;DHT22;6852;51.686;5.314;2023-02-01T06:30:45;6.70;99.90
13561;DHT22;6852;51.686;5.314;2023-02-01T06:33:13;6.80;99.90
13561;DHT22;6852;51.686;5.314;2023-02-01T06:35:42;6.80;99.90
13561;DHT22;6852;51.686;5.314;2023-02-01T06:38:11;6.80;99.90
13561;DHT22;6852;51.686;5.314;2023-02-01T06:40:38;6.80;99.90
13561;DHT22;6852;51.686;5.314;2023-02-01T06:43:05;6.80;99.90
13561;DHT22;6852;51.686;5.314;2023-02-01T06:45:32;6.80;99.90
13561;DHT22;6852;51.686;5.314;2023-02-01T06:47:59;6.70;99.90
13561;DHT22;6852;51.686;5.314;2023-02-01T06:50:27;6.70;99.90
13561;DHT22;6852;51.686;5.314;2023-02-01T06:52:55;6.70;99.90
13561;DHT22;6852;51.686;5.314;2023-02-01T06:55:22;6.80;99.90
13561;DHT22;6852;51.686;5.314;2023-02-01T06:57:53;6.70;99.90
13561;DHT22;6852;51.686;5.314;2023-02-01T07:00:20;6.70;99.90
13561;DHT22;6852;51.686;5.314;2023-02-01T07:02:48;6.60;99.90
13561;DHT22;6852;51.686;5.314;2023-02-01T07:05:15;6.50;99.90
13561;DHT22;6852;51.686;5.314;2023-02-01T07:07:42;6.60;99.90
13561;DHT22;6852;51.686;5.314;2023-02-01T07:10:10;6.60;99.90
13561;DHT22;6852;51.686;5.314;2023-02-01T07:12:36;6.50;99.90
13561;DHT22;6852;51.686;5.314;2023-02-01T07:15:04;6.50;99.90
13561;DHT22;6852;51.686;5.314;2023-02-01T07:17:31;6.50;99.90
13561;DHT22;6852;51.686;5.314;2023-02-01T07:19:58;6.50;99.90
13561;DHT22;6852;51.686;5.314;2023-02-01T07:22:28;6.50;99.90
13561;DHT22;6852;51.686;5.314;2023-02-01T07:24:55;6.50;99.90
13561;DHT22;6852;51.686;5.314;2023-02-01T07:27:22;6.50;99.90
13561;DHT22;6852;51.686;5.314;2023-02-01T07:29:51;6.50;99.90
13561;DHT22;6852;51.686;5.314;2023-02-01T07:32:18;6.50;99.90
13561;DHT22;6852;51.686;5.314;2023-02-01T07:34:45;6.50;99.90
13561;DHT22;6852;51.686;5.314;2023-02-01T07:37:12;6.50;99.90
13561;DHT22;6852;51.686;5.314;2023-02-01T07:39:39;6.50;99.90
13561;DHT22;6852;51.686;5.314;2023-02-01T07:42:06;6.60;99.90
13561;DHT22;6852;51.686;5.314;2023-02-01T07:44:33;6.50;99.90
13561;DHT22;6852;51.686;5.314;2023-02-01T07:46:59;6.50;99.90
13561;DHT22;6852;51.686;5.314;2023-02-01T07:49:26;6.50;99.90
13561;DHT22;6852;51.686;5.314;2023-02-01T07:51:53;6.50;99.90
13561;DHT22;6852;51.686;5.314;2023-02-01T07:54:20;6.50;99.90
13561;DHT22;6852;51.686;5.314;2023-02-01T07:56:46;6.50;99.90
13561;DHT22;6852;51.686;5.314;2023-02-01T07:59:13;6.50;99.90
13561;DHT22;6852;51.686;5.314;2023-02-01T08:01:42;6.50;99.90
13561;DHT22;6852;51.686;5.314;2023-02-01T08:04:11;6.60;99.90
13561;DHT22;6852;51.686;5.314;2023-02-01T08:06:39;6.50;99.90
13561;DHT22;6852;51.686;5.314;2023-02-01T08:09:07;6.60;99.90
13561;DHT22;6852;51.686;5.314;2023-02-01T08:11:34;6.70;99.90
13561;DHT22;6852;51.686;5.314;2023-02-01T08:14:04;6.70;99.90
13561;DHT22;6852;51.686;5.314;2023-02-01T08:16:33;6.70;99.90
13561;DHT22;6852;51.686;5.314;2023-02-01T08:19:01;6.70;99.90
13561;DHT22;6852;51.686;5.314;2023-02-01T08:21:29;6.70;99.90
13561;DHT22;6852;51.686;5.314;2023-02-01T08:24:05;6.70;99.90
13561;DHT22;6852;51.686;5.314;2023-02-01T08:26:32;6.70;99.90
13561;DHT22;6852;51.686;5.314;2023-02-01T08:29:01;6.70;99.90
13561;DHT22;6852;51.686;5.314;2023-02-01T08:31:29;6.70;99.90
13561;DHT22;6852;51.686;5.314;2023-02-01T08:33:59;6.70;99.90
13561;DHT22;6852;51.686;5.314;2023-02-01T08:36:28;6.70;99.90
13561;DHT22;6852;51.686;5.314;2023-02-01T08:38:55;6.70;99.90
13561;DHT22;6852;51.686;5.314;2023-02-01T08:41:24;6.70;99.90
13561;DHT22;6852;51.686;5.314;2023-02-01T08:43:52;6.80;99.90
13561;DHT22;6852;51.686;5.314;2023-02-01T08:46:21;6.90;99.90
13561;DHT22;6852;51.686;5.314;2023-02-01T08:48:48;7.00;99.90
13561;DHT22;6852;51.686;5.314;2023-02-01T08:51:17;7.10;99.90
13561;DHT22;6852;51.686;5.314;2023-02-01T08:53:45;7.10;99.90
13561;DHT22;6852;51.686;5.314;2023-02-01T08:56:14;7.20;99.90
13561;DHT22;6852;51.686;5.314;2023-02-01T08:58:41;7.20;99.90
13561;DHT22;6852;51.686;5.314;2023-02-01T09:01:11;7.30;99.90
13561;DHT22;6852;51.686;5.314;2023-02-01T09:03:39;7.30;99.90
13561;DHT22;6852;51.686;5.314;2023-02-01T09:06:10;7.20;99.90
13561;DHT22;6852;51.686;5.314;2023-02-01T09:08:39;7.30;99.90
13561;DHT22;6852;51.686;5.314;2023-02-01T09:11:09;7.40;99.90
13561;DHT22;6852;51.686;5.314;2023-02-01T09:13:36;7.40;99.90
13561;DHT22;6852;51.686;5.314;2023-02-01T09:16:03;7.50;99.90
13561;DHT22;6852;51.686;5.314;2023-02-01T09:18:30;7.60;99.90
13561;DHT22;6852;51.686;5.314;2023-02-01T09:20:57;7.70;99.90
13561;DHT22;6852;51.686;5.314;2023-02-01T09:23:24;7.70;99.90
13561;DHT22;6852;51.686;5.314;2023-02-01T09:25:52;7.90;99.90
13561;DHT22;6852;51.686;5.314;2023-02-01T09:28:19;8.00;99.90
13561;DHT22;6852;51.686;5.314;2023-02-01T09:30:46;8.20;99.90
13561;DHT22;6852;51.686;5.314;2023-02-01T09:33:13;8.20;99.90
13561;DHT22;6852;51.686;5.314;2023-02-01T09:35:40;8.20;99.90
13561;DHT22;6852;51.686;5.314;2023-02-01T09:38:07;8.00;99.90
13561;DHT22;6852;51.686;5.314;2023-02-01T09:40:34;8.10;99.90
13561;DHT22;6852;51.686;5.314;2023-02-01T09:48:14;8.10;99.90
13561;DHT22;6852;51.686;5.314;2023-02-01T09:50:50;8.10;99.90
13561;DHT22;6852;51.686;5.314;2023-02-01T09:53:27;8.10;99.90
13561;DHT22;6852;51.686;5.314;2023-02-01T09:56:18;8.50;99.90
13561;DHT22;6852;51.686;5.314;2023-02-01T09:58:59;8.90;99.90
13561;DHT22;6852;51.686;5.314;2023-02-01T10:01:28;8.80;99.90
13561;DHT22;6852;51.686;5.314;2023-02-01T10:04:02;8.80;99.90
13561;DHT22;6852;51.686;5.314;2023-02-01T10:28:27;8.00;99.90
13561;DHT22;6852;51.686;5.314;2023-02-01T10:30:56;8.10;99.90
13561;DHT22;6852;51.686;5.314;2023-02-01T10:33:39;8.10;99.90
13561;DHT22;6852;51.686;5.314;2023-02-01T10:38:34;7.90;99.90
13561;DHT22;6852;51.686;5.314;2023-02-01T10:41:07;8.10;99.90
13561;DHT22;6852;51.686;5.314;2023-02-01T10:43:37;8.00;99.90
13561;DHT22;6852;51.686;5.314;2023-02-01T10:46:07;7.90;99.90
13561;DHT22;6852;51.686;5.314;2023-02-01T10:48:35;7.90;99.90
13561;DHT22;6852;51.686;5.314;2023-02-01T10:51:14;7.80;99.90
13561;DHT22;6852;51.686;5.314;2023-02-01T10:54:00;7.90;99.90
13561;DHT22;6852;51.686;5.314;2023-02-01T10:56:28;8.00;99.90
13561;DHT22;6852;51.686;5.314;2023-02-01T10:59:11;7.90;99.90
13561;DHT22;6852;51.686;5.314;2023-02-01T11:01:42;7.90;99.90
13561;DHT22;6852;51.686;5.314;2023-02-01T11:04:13;8.00;99.90
13561;DHT22;6852;51.686;5.314;2023-02-01T11:06:43;7.90;99.90
13561;DHT22;6852;51.686;5.314;2023-02-01T11:09:18;8.00;99.90
13561;DHT22;6852;51.686;5.314;2023-02-01T11:14:16;7.90;99.90
13561;DHT22;6852;51.686;5.314;2023-02-01T11:16:49;7.90;99.90
13561;DHT22;6852;51.686;5.314;2023-02-01T11:19:17;7.90;99.90
13561;DHT22;6852;51.686;5.314;2023-02-01T11:21:44;8.00;99.90
13561;DHT22;6852;51.686;5.314;2023-02-01T11:24:31;8.00;99.90
13561;DHT22;6852;51.686;5.314;2023-02-01T11:27:02;8.00;99.90
13561;DHT22;6852;51.686;5.314;2023-02-01T11:29:38;7.90;99.90
13561;DHT22;6852;51.686;5.314;2023-02-01T11:32:08;7.80;99.90
13561;DHT22;6852;51.686;5.314;2023-02-01T11:34:58;7.90;99.90
13561;DHT22;6852;51.686;5.314;2023-02-01T11:37:41;7.90;99.90
13561;DHT22;6852;51.686;5.314;2023-02-01T11:43:18;8.00;99.90
13561;DHT22;6852;51.686;5.314;2023-02-01T11:46:16;8.10;99.90
13561;DHT22;6852;51.686;5.314;2023-02-01T11:48:43;8.20;99.90
13561;DHT22;6852;51.686;5.314;2023-02-01T11:54:10;8.10;99.90
13561;DHT22;6852;51.686;5.314;2023-02-01T12:02:40;8.20;99.90
13561;DHT22;6852;51.686;5.314;2023-02-01T12:13:59;8.20;99.90
13561;DHT22;6852;51.686;5.314;2023-02-01T12:22:28;8.20;99.90
13561;DHT22;6852;51.686;5.314;2023-02-01T12:25:04;8.10;99.90
13561;DHT22;6852;51.686;5.314;2023-02-01T12:36:05;8.20;99.90
13561;DHT22;6852;51.686;5.314;2023-02-01T12:44:43;8.20;99.90
13561;DHT22;6852;51.686;5.314;2023-02-01T12:48:18;8.20;99.90
13561;DHT22;6852;51.686;5.314;2023-02-01T12:50:50;8.20;99.90
13561;DHT22;6852;51.686;5.314;2023-02-01T12:53:57;8.20;99.90
13561;DHT22;6852;51.686;5.314;2023-02-01T12:56:38;8.30;99.90
13561;DHT22;6852;51.686;5.314;2023-02-01T12:59:27;8.30;99.90
13561;DHT22;6852;51.686;5.314;2023-02-01T13:04:34;8.30;99.90
13561;DHT22;6852;51.686;5.314;2023-02-01T13:07:16;8.40;99.90
13561;DHT22;6852;51.686;5.314;2023-02-01T13:09:55;8.50;99.90
13561;DHT22;6852;51.686;5.314;2023-02-01T13:15:31;8.70;99.90
13561;DHT22;6852;51.686;5.314;2023-02-01T13:18:03;8.70;99.90
13561;DHT22;6852;51.686;5.314;2023-02-01T13:20:35;8.70;99.90
13561;DHT22;6852;51.686;5.314;2023-02-01T13:23:09;8.70;99.90
13561;DHT22;6852;51.686;5.314;2023-02-01T13:25:50;8.60;99.90
13561;DHT22;6852;51.686;5.314;2023-02-01T13:28:26;8.80;99.90
13561;DHT22;6852;51.686;5.314;2023-02-01T13:42:18;8.90;99.90
13561;DHT22;6852;51.686;5.314;2023-02-01T13:47:34;8.80;99.90
13561;DHT22;6852;51.686;5.314;2023-02-01T13:50:37;8.80;99.90
13561;DHT22;6852;51.686;5.314;2023-02-01T13:53:17;8.90;99.90
13561;DHT22;6852;51.686;5.314;2023-02-01T13:55:46;8.90;99.90
13561;DHT22;6852;51.686;5.314;2023-02-01T13:58:30;8.80;99.90
13561;DHT22;6852;51.686;5.314;2023-02-01T14:09:17;8.80;99.90
13561;DHT22;6852;51.686;5.314;2023-02-01T14:11:52;8.80;99.90
13561;DHT22;6852;51.686;5.314;2023-02-01T14:19:25;8.90;99.90
13561;DHT22;6852;51.686;5.314;2023-02-01T14:21:57;8.80;99.90
13561;DHT22;6852;51.686;5.314;2023-02-01T14:24:34;8.80;99.90
13561;DHT22;6852;51.686;5.314;2023-02-01T14:27:16;8.80;99.90
13561;DHT22;6852;51.686;5.314;2023-02-01T14:29:51;8.80;99.90
13561;DHT22;6852;51.686;5.314;2023-02-01T14:32:26;8.70;99.90
13561;DHT22;6852;51.686;5.314;2023-02-01T14:35:00;8.70;99.90
13561;DHT22;6852;51.686;5.314;2023-02-01T14:37:36;8.80;99.90
13561;DHT22;6852;51.686;5.314;2023-02-01T14:40:25;8.70;99.90
13561;DHT22;6852;51.686;5.314;2023-02-01T14:42:53;8.70;99.90
13561;DHT22;6852;51.686;5.314;2023-02-01T14:47:48;8.70;99.90
13561;DHT22;6852;51.686;5.314;2023-02-01T14:58:50;8.70;99.90
13561;DHT22;6852;51.686;5.314;2023-02-01T15:01:35;8.70;99.90
13561;DHT22;6852;51.686;5.314;2023-02-01T15:04:08;8.70;99.90
13561;DHT22;6852;51.686;5.314;2023-02-01T15:06:46;8.70;99.90
13561;DHT22;6852;51.686;5.314;2023-02-01T15:14:28;8.70;99.90
13561;DHT22;6852;51.686;5.314;2023-02-01T15:16:55;8.70;99.90
13561;DHT22;6852;51.686;5.314;2023-02-01T15:19:27;8.70;99.90
13561;DHT22;6852;51.686;5.314;2023-02-01T15:21:56;8.70;99.90
13561;DHT22;6852;51.686;5.314;2023-02-01T15:24:28;8.70;99.90
13561;DHT22;6852;51.686;5.314;2023-02-01T15:27:02;8.70;99.90
13561;DHT22;6852;51.686;5.314;2023-02-01T15:29:30;8.60;99.90
13561;DHT22;6852;51.686;5.314;2023-02-01T15:31:59;8.60;99.90
13561;DHT22;6852;51.686;5.314;2023-02-01T15:34:47;8.60;99.90
13561;DHT22;6852;51.686;5.314;2023-02-01T15:37:16;8.60;99.90
13561;DHT22;6852;51.686;5.314;2023-02-01T15:42:31;8.50;99.90
13561;DHT22;6852;51.686;5.314;2023-02-01T15:44:58;8.50;99.90
13561;DHT22;6852;51.686;5.314;2023-02-01T15:47:27;8.50;99.90
13561;DHT22;6852;51.686;5.314;2023-02-01T15:49:59;8.50;99.90
13561;DHT22;6852;51.686;5.314;2023-02-01T15:52:37;8.50;99.90
13561;DHT22;6852;51.686;5.314;2023-02-01T15:55:07;8.60;99.90
13561;DHT22;6852;51.686;5.314;2023-02-01T15:57:39;8.60;99.90
13561;DHT22;6852;51.686;5.314;2023-02-01T16:00:30;8.60;99.90
13561;DHT22;6852;51.686;5.314;2023-02-01T16:02:57;8.60;99.90
13561;DHT22;6852;51.686;5.314;2023-02-01T16:08:04;8.50;99.90
13561;DHT22;6852;51.686;5.314;2023-02-01T16:10:37;8.50;99.90
13561;DHT22;6852;51.686;5.314;2023-02-01T16:13:04;8.50;99.90
13561;DHT22;6852;51.686;5.314;2023-02-01T16:15:31;8.60;99.90
13561;DHT22;6852;51.686;5.314;2023-02-01T16:17:58;8.50;99.90
13561;DHT22;6852;51.686;5.314;2023-02-01T16:20:25;8.50;99.90
13561;DHT22;6852;51.686;5.314;2023-02-01T16:22:52;8.50;99.90
13561;DHT22;6852;51.686;5.314;2023-02-01T16:25:18;8.60;99.90
13561;DHT22;6852;51.686;5.314;2023-02-01T16:27:45;8.60;99.90
13561;DHT22;6852;51.686;5.314;2023-02-01T16:30:12;8.60;99.90
13561;DHT22;6852;51.686;5.314;2023-02-01T16:32:39;8.60;99.90
13561;DHT22;6852;51.686;5.314;2023-02-01T16:35:16;8.60;99.90
13561;DHT22;6852;51.686;5.314;2023-02-01T16:37:46;8.50;99.90
13561;DHT22;6852;51.686;5.314;2023-02-01T16:40:14;8.50;99.90
13561;DHT22;6852;51.686;5.314;2023-02-01T16:42:41;8.50;99.90
13561;DHT22;6852;51.686;5.314;2023-02-01T16:45:09;8.50;99.90
13561;DHT22;6852;51.686;5.314;2023-02-01T16:47:37;8.60;99.90
13561;DHT22;6852;51.686;5.314;2023-02-01T16:50:15;8.50;99.90
13561;DHT22;6852;51.686;5.314;2023-02-01T16:52:49;8.50;99.90
13561;DHT22;6852;51.686;5.314;2023-02-01T16:55:19;8.40;99.90
13561;DHT22;6852;51.686;5.314;2023-02-01T16:57:48;8.50;99.90
13561;DHT22;6852;51.686;5.314;2023-02-01T17:00:15;8.50;99.90
13561;DHT22;6852;51.686;5.314;2023-02-01T17:02:52;8.50;99.90
13561;DHT22;6852;51.686;5.314;2023-02-01T17:05:19;8.50;99.90
13561;DHT22;6852;51.686;5.314;2023-02-01T17:07:46;8.40;99.90
13561;DHT22;6852;51.686;5.314;2023-02-01T17:10:23;8.50;99.90
13561;DHT22;6852;51.686;5.314;2023-02-01T17:13:01;8.50;99.90
13561;DHT22;6852;51.686;5.314;2023-02-01T17:15:31;8.50;99.90
13561;DHT22;6852;51.686;5.314;2023-02-01T17:18:01;8.50;99.90
13561;DHT22;6852;51.686;5.314;2023-02-01T17:20:29;8.50;99.90
13561;DHT22;6852;51.686;5.314;2023-02-01T17:22:58;8.50;99.90
13561;DHT22;6852;51.686;5.314;2023-02-01T17:25:26;8.50;99.90
13561;DHT22;6852;51.686;5.314;2023-02-01T17:27:54;8.50;99.90
13561;DHT22;6852;51.686;5.314;2023-02-01T17:30:20;8.50;99.90
13561;DHT22;6852;51.686;5.314;2023-02-01T17:32:47;8.50;99.90
13561;DHT22;6852;51.686;5.314;2023-02-01T17:35:27;8.50;99.90
13561;DHT22;6852;51.686;5.314;2023-02-01T17:37:55;8.50;99.90
13561;DHT22;6852;51.686;5.314;2023-02-01T17:40:21;8.50;99.90
13561;DHT22;6852;51.686;5.314;2023-02-01T17:42:49;8.50;99.90
13561;DHT22;6852;51.686;5.314;2023-02-01T17:45:39;8.50;99.90
13561;DHT22;6852;51.686;5.314;2023-02-01T17:48:07;8.50;99.90
13561;DHT22;6852;51.686;5.314;2023-02-01T17:50:36;8.40;99.90
13561;DHT22;6852;51.686;5.314;2023-02-01T17:53:05;8.50;99.90
13561;DHT22;6852;51.686;5.314;2023-02-01T17:55:39;8.50;99.90
13561;DHT22;6852;51.686;5.314;2023-02-01T17:58:11;8.40;99.90
13561;DHT22;6852;51.686;5.314;2023-02-01T18:00:40;8.40;99.90
13561;DHT22;6852;51.686;5.314;2023-02-01T18:03:26;8.40;99.90
13561;DHT22;6852;51.686;5.314;2023-02-01T18:05:55;8.40;99.90
13561;DHT22;6852;51.686;5.314;2023-02-01T18:08:25;8.40;99.90
13561;DHT22;6852;51.686;5.314;2023-02-01T18:10:57;8.40;99.90
13561;DHT22;6852;51.686;5.314;2023-02-01T18:13:28;8.40;99.90
13561;DHT22;6852;51.686;5.314;2023-02-01T18:15:55;8.40;99.90
13561;DHT22;6852;51.686;5.314;2023-02-01T18:18:22;8.40;99.90
13561;DHT22;6852;51.686;5.314;2023-02-01T18:20:49;8.40;99.90
13561;DHT22;6852;51.686;5.314;2023-02-01T18:23:19;8.40;99.90
13561;DHT22;6852;51.686;5.314;2023-02-01T18:25:47;8.50;99.90
13561;DHT22;6852;51.686;5.314;2023-02-01T18:28:15;8.50;99.90
13561;DHT22;6852;51.686;5.314;2023-02-01T18:30:43;8.40;99.90
13561;DHT22;6852;51.686;5.314;2023-02-01T18:33:15;8.50;99.90
13561;DHT22;6852;51.686;5.314;2023-02-01T18:35:42;8.50;99.90
13561;DHT22;6852;51.686;5.314;2023-02-01T18:38:10;8.50;99.90
13561;DHT22;6852;51.686;5.314;2023-02-01T18:40:41;8.50;99.90
13561;DHT22;6852;51.686;5.314;2023-02-01T18:43:09;8.50;99.90
13561;DHT22;6852;51.686;5.314;2023-02-01T18:45:39;8.50;99.90
13561;DHT22;6852;51.686;5.314;2023-02-01T18:48:09;8.50;99.90
13561;DHT22;6852;51.686;5.314;2023-02-01T18:50:42;8.50;99.90
13561;DHT22;6852;51.686;5.314;2023-02-01T18:53:18;8.50;99.90
13561;DHT22;6852;51.686;5.314;2023-02-01T18:55:53;8.60;99.90
13561;DHT22;6852;51.686;5.314;2023-02-01T18:58:21;8.50;99.90
13561;DHT22;6852;51.686;5.314;2023-02-01T19:00:54;8.60;99.90
13561;DHT22;6852;51.686;5.314;2023-02-01T19:03:21;8.60;99.90